Time,TemperatureF,DewpointF,PressureIn,WindDirection,WindDirectionDegrees,WindSpeedMPH,WindSpeedGustMPH,Humidity,HourlyPrecipIn,Conditions,Clouds,dailyrainin,SolarRadiationWatts/m^2,SoftwareType,DateUTC
2013-11-21 00:03:00,48.0,44.0,-100.00,NNE,26,6.0,10.0,85,0.00,,,0.00,0.000000,,2013-11-21 05:03:00,
2013-11-21 00:12:00,48.0,44.0,-100.00,NNE,26,6.0,10.0,85,0.00,,,0.00,0.000000,,2013-11-21 05:12:00,
2013-11-21 00:43:00,47.0,43.0,-100.00,NNE,31,5.0,11.0,86,0.00,,,0.00,0.000000,,2013-11-21 05:43:00,
2013-11-21 00:53:00,47.0,43.0,-100.00,NNE,31,5.0,11.0,86,0.00,,,0.00,0.000000,,2013-11-21 05:53:00,
2013-11-21 01:03:00,47.0,43.0,-100.00,NNE,31,5.0,11.0,86,0.00,,,0.00,0.000000,,2013-11-21 06:03:00,
2013-11-21 01:12:00,47.0,43.0,-100.00,NNE,31,5.0,11.0,86,0.00,,,0.00,0.000000,,2013-11-21 06:12:00,
2013-11-21 01:43:00,47.0,44.0,-100.00,North,7,4.0,6.0,89,0.00,,,0.00,0.000000,,2013-11-21 06:43:00,
2013-11-21 01:52:00,47.0,44.0,-100.00,North,7,4.0,6.0,89,0.00,,,0.00,0.000000,,2013-11-21 06:52:00,
2013-11-21 02:02:00,47.0,44.0,-100.00,North,7,4.0,6.0,89,0.00,,,0.00,0.000000,,2013-11-21 07:02:00,
2013-11-21 02:11:00,47.0,44.0,-100.00,North,7,4.0,6.0,89,0.00,,,0.00,0.000000,,2013-11-21 07:11:00,
2013-11-21 02:43:00,47.0,44.0,-100.00,NNE,25,5.0,8.0,89,0.00,,,0.00,0.000000,,2013-11-21 07:43:00,
2013-11-21 02:52:00,47.0,44.0,-100.00,NNE,25,5.0,8.0,89,0.00,,,0.00,0.000000,,2013-11-21 07:52:00,
2013-11-21 03:02:00,47.0,44.0,-100.00,NNE,25,5.0,8.0,89,0.00,,,0.00,0.000000,,2013-11-21 08:02:00,
2013-11-21 03:12:00,47.0,44.0,-100.00,NNE,25,5.0,8.0,89,0.00,,,0.00,0.000000,,2013-11-21 08:12:00,
2013-11-21 03:42:00,48.0,45.0,-100.00,North,7,4.0,6.0,91,0.00,,,0.00,0.000000,,2013-11-21 08:42:00,
2013-11-21 03:52:00,48.0,45.0,-100.00,North,7,4.0,6.0,91,0.00,,,0.00,0.000000,,2013-11-21 08:52:00,
2013-11-21 04:02:00,48.0,45.0,-100.00,North,7,4.0,6.0,91,0.00,,,0.00,0.000000,,2013-11-21 09:02:00,
2013-11-21 04:11:00,48.0,45.0,-100.00,North,7,4.0,6.0,91,0.00,,,0.00,0.000000,,2013-11-21 09:11:00,
2013-11-21 04:43:00,47.0,45.0,-100.00,NNW,332,3.0,6.0,92,0.00,,,0.00,0.000000,,2013-11-21 09:43:00,
2013-11-21 04:53:00,47.0,45.0,-100.00,NNW,332,3.0,6.0,92,0.00,,,0.00,0.000000,,2013-11-21 09:53:00,
2013-11-21 05:03:00,47.0,45.0,-100.00,NNW,332,3.0,6.0,92,0.00,,,0.00,0.000000,,2013-11-21 10:03:00,
2013-11-21 05:13:00,47.0,45.0,-100.00,NNW,332,3.0,6.0,92,0.00,,,0.00,0.000000,,2013-11-21 10:13:00,
2013-11-21 05:42:00,49.0,47.0,-100.00,NNE,13,6.0,9.0,94,0.00,,,0.00,0.000000,,2013-11-21 10:42:00,
2013-11-21 05:53:00,49.0,47.0,-100.00,NNE,13,6.0,9.0,94,0.00,,,0.00,0.000000,,2013-11-21 10:53:00,
2013-11-21 06:03:00,49.0,47.0,-100.00,NNE,13,6.0,9.0,94,0.00,,,0.00,0.000000,,2013-11-21 11:03:00,
2013-11-21 06:12:00,49.0,47.0,-100.00,NNE,13,6.0,9.0,94,0.00,,,0.00,0.000000,,2013-11-21 11:12:00,
2013-11-21 06:43:00,47.0,45.0,-100.00,North,359,4.0,9.0,93,0.00,,,0.00,0.000000,,2013-11-21 11:43:00,
2013-11-21 06:53:00,47.0,45.0,-100.00,North,359,4.0,9.0,93,0.00,,,0.00,0.000000,,2013-11-21 11:53:00,
2013-11-21 07:02:00,47.0,45.0,-100.00,North,359,4.0,9.0,93,0.00,,,0.00,0.000000,,2013-11-21 12:02:00,
2013-11-21 07:12:00,47.0,45.0,-100.00,North,359,4.0,9.0,93,0.00,,,0.00,0.000000,,2013-11-21 12:12:00,
2013-11-21 07:42:00,47.0,46.0,-100.00,ENE,69,3.0,7.0,95,0.00,,,0.00,6.000000,,2013-11-21 12:42:00,
2013-11-21 07:52:00,47.0,46.0,-100.00,ENE,69,3.0,7.0,95,0.00,,,0.00,6.000000,,2013-11-21 12:52:00,
2013-11-21 08:01:00,47.0,46.0,-100.00,ENE,69,3.0,7.0,95,0.00,,,0.00,6.000000,,2013-11-21 13:01:00,
2013-11-21 08:11:00,47.0,46.0,-100.00,ENE,69,3.0,7.0,95,0.00,,,0.00,6.000000,,2013-11-21 13:11:00,
2013-11-21 08:42:00,49.0,48.0,-100.00,NNW,340,5.0,8.0,95,0.00,,,0.00,59.000000,,2013-11-21 13:42:00,
2013-11-21 08:52:00,49.0,48.0,-100.00,NNW,340,5.0,8.0,95,0.00,,,0.00,59.000000,,2013-11-21 13:52:00,
2013-11-21 09:02:00,49.0,48.0,-100.00,NNW,340,5.0,8.0,95,0.00,,,0.00,59.000000,,2013-11-21 14:02:00,
2013-11-21 09:11:00,49.0,48.0,-100.00,NNW,340,5.0,8.0,95,0.00,,,0.00,59.000000,,2013-11-21 14:11:00,
2013-11-21 09:42:00,56.0,51.0,-100.00,NNE,31,6.0,9.0,84,0.00,,,0.00,335.000000,,2013-11-21 14:42:00,
2013-11-21 09:52:00,56.0,51.0,-100.00,NNE,31,6.0,9.0,84,0.00,,,0.00,335.000000,,2013-11-21 14:52:00,
2013-11-21 10:02:00,56.0,51.0,-100.00,NNE,31,6.0,9.0,84,0.00,,,0.00,335.000000,,2013-11-21 15:02:00,
2013-11-21 10:12:00,56.0,51.0,-100.00,NNE,31,6.0,9.0,84,0.00,,,0.00,335.000000,,2013-11-21 15:12:00,
2013-11-21 10:44:00,62.0,54.0,-100.00,NE,42,6.0,12.0,74,0.00,,,0.00,532.000000,,2013-11-21 15:44:00,
2013-11-21 10:53:00,62.0,54.0,-100.00,NE,42,6.0,12.0,74,0.00,,,0.00,532.000000,,2013-11-21 15:53:00,
2013-11-21 11:03:00,62.0,54.0,-100.00,NE,42,6.0,12.0,74,0.00,,,0.00,532.000000,,2013-11-21 16:03:00,
2013-11-21 11:13:00,62.0,54.0,-100.00,NE,42,6.0,12.0,74,0.00,,,0.00,532.000000,,2013-11-21 16:13:00,
2013-11-21 11:42:00,67.0,56.0,-100.00,ENE,64,5.0,10.0,68,0.00,,,0.00,654.000000,,2013-11-21 16:42:00,
2013-11-21 11:53:00,67.0,56.0,-100.00,ENE,64,5.0,10.0,68,0.00,,,0.00,654.000000,,2013-11-21 16:53:00,
2013-11-21 12:03:00,67.0,56.0,-100.00,ENE,64,5.0,10.0,68,0.00,,,0.00,654.000000,,2013-11-21 17:03:00,
2013-11-21 12:12:00,67.0,56.0,-100.00,ENE,64,5.0,10.0,68,0.00,,,0.00,654.000000,,2013-11-21 17:12:00,
2013-11-21 12:42:00,69.0,56.0,-100.00,ENE,59,4.0,9.0,63,0.00,,,0.00,619.000000,,2013-11-21 17:42:00,
2013-11-21 12:52:00,69.0,56.0,-100.00,ENE,59,4.0,9.0,63,0.00,,,0.00,619.000000,,2013-11-21 17:52:00,
2013-11-21 13:02:00,69.0,56.0,-100.00,ENE,59,4.0,9.0,63,0.00,,,0.00,619.000000,,2013-11-21 18:02:00,
2013-11-21 13:12:00,69.0,56.0,-100.00,ENE,59,4.0,9.0,63,0.00,,,0.00,619.000000,,2013-11-21 18:12:00,
2013-11-21 13:42:00,71.0,58.0,-100.00,ENE,66,4.0,9.0,63,0.00,,,0.00,509.000000,,2013-11-21 18:42:00,
2013-11-21 13:52:00,71.0,58.0,-100.00,ENE,66,4.0,9.0,63,0.00,,,0.00,509.000000,,2013-11-21 18:52:00,
2013-11-21 14:02:00,71.0,58.0,-100.00,ENE,66,4.0,9.0,63,0.00,,,0.00,509.000000,,2013-11-21 19:02:00,
2013-11-21 14:12:00,71.0,58.0,-100.00,ENE,66,4.0,9.0,63,0.00,,,0.00,509.000000,,2013-11-21 19:12:00,
2013-11-21 14:42:00,72.0,58.0,-100.00,ENE,71,3.0,8.0,61,0.00,,,0.00,556.000000,,2013-11-21 19:42:00,
2013-11-21 14:52:00,72.0,58.0,-100.00,ENE,71,3.0,8.0,61,0.00,,,0.00,556.000000,,2013-11-21 19:52:00,
2013-11-21 15:02:00,72.0,58.0,-100.00,ENE,71,3.0,8.0,61,0.00,,,0.00,556.000000,,2013-11-21 20:02:00,
2013-11-21 15:12:00,72.0,58.0,-100.00,ENE,71,3.0,8.0,61,0.00,,,0.00,556.000000,,2013-11-21 20:12:00,
2013-11-21 15:42:00,71.0,57.0,-100.00,ENE,68,2.0,6.0,62,0.00,,,0.00,379.000000,,2013-11-21 20:42:00,
2013-11-21 15:52:00,71.0,57.0,-100.00,ENE,68,2.0,6.0,62,0.00,,,0.00,379.000000,,2013-11-21 20:52:00,
2013-11-21 16:02:00,71.0,57.0,-100.00,ENE,68,2.0,6.0,62,0.00,,,0.00,379.000000,,2013-11-21 21:02:00,
2013-11-21 16:11:00,71.0,57.0,-100.00,ENE,68,2.0,6.0,62,0.00,,,0.00,379.000000,,2013-11-21 21:11:00,
2013-11-21 16:43:00,66.0,56.0,-100.00,East,94,2.0,6.0,70,0.00,,,0.00,54.000000,,2013-11-21 21:43:00,
2013-11-21 16:54:00,66.0,56.0,-100.00,East,94,2.0,6.0,70,0.00,,,0.00,54.000000,,2013-11-21 21:54:00,
2013-11-21 17:03:00,66.0,56.0,-100.00,East,94,2.0,6.0,70,0.00,,,0.00,54.000000,,2013-11-21 22:03:00,
2013-11-21 17:13:00,66.0,56.0,-100.00,East,94,2.0,6.0,70,0.00,,,0.00,54.000000,,2013-11-21 22:13:00,
2013-11-21 17:43:00,61.0,56.0,-100.00,ESE,111,1.0,2.0,84,0.00,,,0.00,15.000000,,2013-11-21 22:43:00,
2013-11-21 17:53:00,61.0,56.0,-100.00,ESE,111,1.0,2.0,84,0.00,,,0.00,15.000000,,2013-11-21 22:53:00,
2013-11-21 18:03:00,61.0,56.0,-100.00,ESE,111,1.0,2.0,84,0.00,,,0.00,15.000000,,2013-11-21 23:03:00,
2013-11-21 18:12:00,61.0,56.0,-100.00,ESE,111,1.0,2.0,84,0.00,,,0.00,15.000000,,2013-11-21 23:12:00,
2013-11-21 18:42:00,59.0,56.0,-100.00,NE,56,3.0,6.0,91,0.00,,,0.00,0.000000,,2013-11-21 23:42:00,
2013-11-21 18:53:00,59.0,56.0,-100.00,NE,56,3.0,6.0,91,0.00,,,0.00,0.000000,,2013-11-21 23:53:00,
2013-11-21 19:02:00,59.0,56.0,-100.00,NE,56,3.0,6.0,91,0.00,,,0.00,0.000000,,2013-11-22 00:02:00,
2013-11-21 19:11:00,59.0,56.0,-100.00,NE,56,3.0,6.0,91,0.00,,,0.00,0.000000,,2013-11-22 00:11:00,
2013-11-21 19:42:00,57.0,56.0,-100.00,ESE,122,2.0,6.0,96,0.00,,,0.00,0.000000,,2013-11-22 00:42:00,
2013-11-21 19:52:00,57.0,56.0,-100.00,ESE,122,2.0,6.0,96,0.00,,,0.00,0.000000,,2013-11-22 00:52:00,
2013-11-21 20:01:00,57.0,56.0,-100.00,ESE,122,2.0,6.0,96,0.00,,,0.00,0.000000,,2013-11-22 01:01:00,
2013-11-21 20:12:00,57.0,56.0,-100.00,ESE,122,2.0,6.0,96,0.00,,,0.00,0.000000,,2013-11-22 01:12:00,
2013-11-21 20:42:00,57.0,57.0,-100.00,NE,47,3.0,5.0,99,0.00,,,-99.99,0.000000,,2013-11-22 01:42:00,
2013-11-21 20:52:00,57.0,57.0,-100.00,NE,47,3.0,5.0,99,0.00,,,-99.99,0.000000,,2013-11-22 01:52:00,
2013-11-21 21:02:00,57.0,57.0,-100.00,NE,47,3.0,5.0,99,0.00,,,-99.99,0.000000,,2013-11-22 02:02:00,
2013-11-21 21:11:00,57.0,57.0,-100.00,NE,47,3.0,5.0,99,0.00,,,-99.99,0.000000,,2013-11-22 02:11:00,
2013-11-21 21:42:00,57.0,57.0,-100.00,NE,50,1.0,5.0,99,0.00,,,0.00,0.000000,,2013-11-22 02:42:00,
2013-11-21 21:53:00,57.0,57.0,-100.00,NE,50,1.0,5.0,99,0.00,,,0.00,0.000000,,2013-11-22 02:53:00,
2013-11-21 22:02:00,57.0,57.0,-100.00,NE,50,1.0,5.0,99,0.00,,,0.00,0.000000,,2013-11-22 03:02:00,
2013-11-21 22:12:00,57.0,57.0,-100.00,NE,50,1.0,5.0,99,0.00,,,0.00,0.000000,,2013-11-22 03:12:00,
2013-11-21 22:43:00,56.0,56.0,-100.00,NE,55,2.0,6.0,99,0.00,,,0.00,0.000000,,2013-11-22 03:43:00,
2013-11-21 22:54:00,56.0,56.0,-100.00,NE,55,2.0,6.0,99,0.00,,,0.00,0.000000,,2013-11-22 03:54:00,
2013-11-21 23:03:00,56.0,56.0,-100.00,NE,55,2.0,6.0,99,0.00,,,0.00,0.000000,,2013-11-22 04:03:00,
2013-11-21 23:13:00,56.0,56.0,-100.00,NE,55,2.0,6.0,99,0.00,,,0.00,0.000000,,2013-11-22 04:13:00,
2013-11-21 23:43:00,56.0,56.0,-100.00,ENE,72,1.0,4.0,99,0.00,,,0.00,0.000000,,2013-11-22 04:43:00,
2013-11-21 23:53:00,56.0,56.0,-100.00,ENE,72,1.0,4.0,99,0.00,,,0.00,0.000000,,2013-11-22 04:53:00,